sensor_id;sensor_type;location;lat;lon;timestamp;P1;durP1;ratioP1;P2;durP2;ratioP2
15071;SDS011;7635;56.696;13.002;2022-12-18T00:02:08;14.47;;;8.83;;
15071;SDS011;7635;56.696;13.002;2022-12-18T00:04:38;15.67;;;8.00;;
15071;SDS011;7635;56.696;13.002;2022-12-18T00:07:04;13.60;;;7.73;;
15071;SDS011;7635;56.696;13.002;2022-12-18T00:09:31;14.43;;;8.10;;
15071;SDS011;7635;56.696;13.002;2022-12-18T00:11:58;17.53;;;8.03;;
15071;SDS011;7635;56.696;13.002;2022-12-18T00:14:24;17.80;;;10.07;;
15071;SDS011;7635;56.696;13.002;2022-12-18T00:16:53;15.83;;;9.17;;
15071;SDS011;7635;56.696;13.002;2022-12-18T00:19:19;13.90;;;7.77;;
15071;SDS011;7635;56.696;13.002;2022-12-18T00:21:46;15.43;;;8.80;;
15071;SDS011;7635;56.696;13.002;2022-12-18T00:24:13;14.00;;;8.00;;
15071;SDS011;7635;56.696;13.002;2022-12-18T00:26:39;16.63;;;9.10;;
15071;SDS011;7635;56.696;13.002;2022-12-18T00:29:07;15.90;;;9.23;;
15071;SDS011;7635;56.696;13.002;2022-12-18T00:31:39;16.57;;;8.97;;
15071;SDS011;7635;56.696;13.002;2022-12-18T00:34:09;11.77;;;7.93;;
15071;SDS011;7635;56.696;13.002;2022-12-18T00:36:37;13.23;;;8.03;;
15071;SDS011;7635;56.696;13.002;2022-12-18T00:39:05;14.97;;;7.93;;
15071;SDS011;7635;56.696;13.002;2022-12-18T00:41:32;11.27;;;7.00;;
15071;SDS011;7635;56.696;13.002;2022-12-18T00:44:17;16.00;;;9.80;;
15071;SDS011;7635;56.696;13.002;2022-12-18T00:46:44;13.17;;;7.97;;
15071;SDS011;7635;56.696;13.002;2022-12-18T00:49:13;11.67;;;7.53;;
15071;SDS011;7635;56.696;13.002;2022-12-18T00:51:41;16.77;;;8.10;;
15071;SDS011;7635;56.696;13.002;2022-12-18T00:54:07;17.13;;;8.80;;
15071;SDS011;7635;56.696;13.002;2022-12-18T00:56:35;15.17;;;8.57;;
15071;SDS011;7635;56.696;13.002;2022-12-18T00:59:03;14.77;;;6.97;;
15071;SDS011;7635;56.696;13.002;2022-12-18T01:01:30;17.90;;;7.97;;
15071;SDS011;7635;56.696;13.002;2022-12-18T01:03:57;12.63;;;7.77;;
15071;SDS011;7635;56.696;13.002;2022-12-18T01:06:26;13.40;;;7.93;;
15071;SDS011;7635;56.696;13.002;2022-12-18T01:08:52;12.77;;;7.40;;
15071;SDS011;7635;56.696;13.002;2022-12-18T01:11:19;13.37;;;7.93;;
15071;SDS011;7635;56.696;13.002;2022-12-18T01:13:46;14.57;;;8.63;;
15071;SDS011;7635;56.696;13.002;2022-12-18T01:16:14;15.07;;;8.07;;
15071;SDS011;7635;56.696;13.002;2022-12-18T01:18:42;12.53;;;8.20;;
15071;SDS011;7635;56.696;13.002;2022-12-18T01:21:09;15.17;;;8.60;;
15071;SDS011;7635;56.696;13.002;2022-12-18T01:23:38;15.27;;;8.57;;
15071;SDS011;7635;56.696;13.002;2022-12-18T01:26:05;12.03;;;8.10;;
15071;SDS011;7635;56.696;13.002;2022-12-18T01:28:33;12.37;;;7.90;;
15071;SDS011;7635;56.696;13.002;2022-12-18T01:31:08;14.27;;;7.80;;
15071;SDS011;7635;56.696;13.002;2022-12-18T01:33:36;16.03;;;8.63;;
15071;SDS011;7635;56.696;13.002;2022-12-18T01:36:03;12.70;;;7.90;;
15071;SDS011;7635;56.696;13.002;2022-12-18T01:38:30;13.57;;;8.37;;
15071;SDS011;7635;56.696;13.002;2022-12-18T01:40:58;14.93;;;8.23;;
15071;SDS011;7635;56.696;13.002;2022-12-18T01:43:40;17.37;;;8.47;;
15071;SDS011;7635;56.696;13.002;2022-12-18T01:46:08;14.53;;;7.80;;
15071;SDS011;7635;56.696;13.002;2022-12-18T01:48:35;11.63;;;7.10;;
15071;SDS011;7635;56.696;13.002;2022-12-18T01:51:02;12.07;;;6.80;;
15071;SDS011;7635;56.696;13.002;2022-12-18T01:53:30;15.57;;;8.23;;
15071;SDS011;7635;56.696;13.002;2022-12-18T01:55:59;12.40;;;7.67;;
15071;SDS011;7635;56.696;13.002;2022-12-18T01:58:27;14.57;;;7.33;;
15071;SDS011;7635;56.696;13.002;2022-12-18T02:01:03;12.30;;;7.30;;
15071;SDS011;7635;56.696;13.002;2022-12-18T02:03:30;12.07;;;7.27;;
15071;SDS011;7635;56.696;13.002;2022-12-18T02:05:58;13.47;;;8.50;;
15071;SDS011;7635;56.696;13.002;2022-12-18T02:08:33;12.60;;;7.37;;
15071;SDS011;7635;56.696;13.002;2022-12-18T02:11:09;14.43;;;8.00;;
15071;SDS011;7635;56.696;13.002;2022-12-18T02:13:42;12.27;;;7.83;;
15071;SDS011;7635;56.696;13.002;2022-12-18T02:16:17;11.63;;;6.60;;
15071;SDS011;7635;56.696;13.002;2022-12-18T02:18:48;10.90;;;6.07;;
15071;SDS011;7635;56.696;13.002;2022-12-18T02:21:21;10.67;;;6.17;;
15071;SDS011;7635;56.696;13.002;2022-12-18T02:23:56;10.33;;;5.00;;
15071;SDS011;7635;56.696;13.002;2022-12-18T02:26:40;8.77;;;4.87;;
15071;SDS011;7635;56.696;13.002;2022-12-18T02:29:12;6.87;;;4.90;;
15071;SDS011;7635;56.696;13.002;2022-12-18T02:31:42;8.13;;;4.93;;
15071;SDS011;7635;56.696;13.002;2022-12-18T02:34:11;10.03;;;5.73;;
15071;SDS011;7635;56.696;13.002;2022-12-18T02:36:40;7.00;;;5.37;;
15071;SDS011;7635;56.696;13.002;2022-12-18T02:39:10;8.47;;;5.43;;
15071;SDS011;7635;56.696;13.002;2022-12-18T02:41:39;8.03;;;4.93;;
15071;SDS011;7635;56.696;13.002;2022-12-18T02:44:07;10.17;;;5.17;;
15071;SDS011;7635;56.696;13.002;2022-12-18T02:46:36;8.00;;;5.07;;
15071;SDS011;7635;56.696;13.002;2022-12-18T02:49:08;9.87;;;4.67;;
15071;SDS011;7635;56.696;13.002;2022-12-18T02:51:46;8.53;;;4.83;;
15071;SDS011;7635;56.696;13.002;2022-12-18T02:54:20;9.00;;;5.27;;
15071;SDS011;7635;56.696;13.002;2022-12-18T02:57:01;5.70;;;4.40;;
15071;SDS011;7635;56.696;13.002;2022-12-18T02:59:38;8.63;;;4.60;;
15071;SDS011;7635;56.696;13.002;2022-12-18T03:02:14;7.93;;;4.63;;
15071;SDS011;7635;56.696;13.002;2022-12-18T03:04:47;8.80;;;4.30;;
15071;SDS011;7635;56.696;13.002;2022-12-18T03:07:18;7.30;;;4.20;;
15071;SDS011;7635;56.696;13.002;2022-12-18T03:09:48;6.53;;;4.63;;
15071;SDS011;7635;56.696;13.002;2022-12-18T03:12:18;7.30;;;4.50;;
15071;SDS011;7635;56.696;13.002;2022-12-18T03:14:52;7.37;;;4.50;;
15071;SDS011;7635;56.696;13.002;2022-12-18T03:17:22;7.00;;;4.13;;
15071;SDS011;7635;56.696;13.002;2022-12-18T03:19:51;8.90;;;4.50;;
15071;SDS011;7635;56.696;13.002;2022-12-18T03:22:22;7.40;;;3.97;;
15071;SDS011;7635;56.696;13.002;2022-12-18T03:24:50;6.60;;;4.63;;
15071;SDS011;7635;56.696;13.002;2022-12-18T03:27:20;5.80;;;4.17;;
15071;SDS011;7635;56.696;13.002;2022-12-18T03:29:51;8.23;;;4.10;;
15071;SDS011;7635;56.696;13.002;2022-12-18T03:32:24;7.33;;;4.37;;
15071;SDS011;7635;56.696;13.002;2022-12-18T03:34:55;5.90;;;3.50;;
15071;SDS011;7635;56.696;13.002;2022-12-18T03:37:26;3.20;;;1.87;;
15071;SDS011;7635;56.696;13.002;2022-12-18T03:39:53;4.30;;;2.70;;
15071;SDS011;7635;56.696;13.002;2022-12-18T03:42:23;4.63;;;3.20;;
15071;SDS011;7635;56.696;13.002;2022-12-18T03:44:55;6.17;;;3.17;;
15071;SDS011;7635;56.696;13.002;2022-12-18T03:47:28;4.37;;;3.57;;
15071;SDS011;7635;56.696;13.002;2022-12-18T03:49:59;2.63;;;2.40;;
15071;SDS011;7635;56.696;13.002;2022-12-18T03:52:35;3.17;;;2.80;;
15071;SDS011;7635;56.696;13.002;2022-12-18T03:55:05;3.80;;;2.87;;
15071;SDS011;7635;56.696;13.002;2022-12-18T03:57:34;4.93;;;3.03;;
15071;SDS011;7635;56.696;13.002;2022-12-18T04:00:04;5.70;;;3.90;;
15071;SDS011;7635;56.696;13.002;2022-12-18T04:02:32;4.03;;;3.33;;
15071;SDS011;7635;56.696;13.002;2022-12-18T04:05:01;3.93;;;3.10;;
15071;SDS011;7635;56.696;13.002;2022-12-18T04:07:30;5.67;;;3.50;;
15071;SDS011;7635;56.696;13.002;2022-12-18T04:09:58;5.63;;;3.47;;
15071;SDS011;7635;56.696;13.002;2022-12-18T04:12:28;2.77;;;2.53;;
15071;SDS011;7635;56.696;13.002;2022-12-18T04:14:56;6.20;;;3.47;;
15071;SDS011;7635;56.696;13.002;2022-12-18T04:17:23;7.50;;;3.30;;
15071;SDS011;7635;56.696;13.002;2022-12-18T04:19:50;4.93;;;3.20;;
15071;SDS011;7635;56.696;13.002;2022-12-18T04:22:17;5.60;;;3.93;;
15071;SDS011;7635;56.696;13.002;2022-12-18T04:24:43;4.40;;;3.07;;
15071;SDS011;7635;56.696;13.002;2022-12-18T04:27:10;4.67;;;3.73;;
15071;SDS011;7635;56.696;13.002;2022-12-18T04:29:37;4.70;;;3.33;;
15071;SDS011;7635;56.696;13.002;2022-12-18T04:32:05;4.43;;;3.10;;
15071;SDS011;7635;56.696;13.002;2022-12-18T04:34:32;4.00;;;3.47;;
15071;SDS011;7635;56.696;13.002;2022-12-18T04:36:59;8.90;;;3.77;;
15071;SDS011;7635;56.696;13.002;2022-12-18T04:39:26;8.33;;;3.67;;
15071;SDS011;7635;56.696;13.002;2022-12-18T04:41:52;6.67;;;3.73;;
15071;SDS011;7635;56.696;13.002;2022-12-18T04:44:19;5.83;;;3.50;;
15071;SDS011;7635;56.696;13.002;2022-12-18T04:46:46;3.80;;;3.40;;
15071;SDS011;7635;56.696;13.002;2022-12-18T04:49:14;4.80;;;2.60;;
15071;SDS011;7635;56.696;13.002;2022-12-18T04:51:40;0.73;;;0.73;;
15071;SDS011;7635;56.696;13.002;2022-12-18T04:54:07;7.37;;;4.43;;
15071;SDS011;7635;56.696;13.002;2022-12-18T04:56:34;6.07;;;3.67;;
15071;SDS011;7635;56.696;13.002;2022-12-18T04:59:00;4.83;;;2.87;;
15071;SDS011;7635;56.696;13.002;2022-12-18T05:01:27;7.57;;;3.53;;
15071;SDS011;7635;56.696;13.002;2022-12-18T05:03:56;3.10;;;2.70;;
15071;SDS011;7635;56.696;13.002;2022-12-18T05:06:24;3.77;;;2.63;;
15071;SDS011;7635;56.696;13.002;2022-12-18T05:08:51;5.53;;;3.23;;
15071;SDS011;7635;56.696;13.002;2022-12-18T05:11:17;1.97;;;1.70;;
15071;SDS011;7635;56.696;13.002;2022-12-18T05:13:44;5.17;;;3.33;;
15071;SDS011;7635;56.696;13.002;2022-12-18T05:16:11;2.47;;;2.27;;
15071;SDS011;7635;56.696;13.002;2022-12-18T05:18:39;5.20;;;3.63;;
15071;SDS011;7635;56.696;13.002;2022-12-18T05:21:06;6.33;;;3.30;;
15071;SDS011;7635;56.696;13.002;2022-12-18T05:23:34;6.30;;;3.83;;
15071;SDS011;7635;56.696;13.002;2022-12-18T05:26:03;2.87;;;2.57;;
15071;SDS011;7635;56.696;13.002;2022-12-18T05:28:32;4.73;;;3.60;;
15071;SDS011;7635;56.696;13.002;2022-12-18T05:31:00;7.83;;;3.77;;
15071;SDS011;7635;56.696;13.002;2022-12-18T05:33:28;3.20;;;2.83;;
15071;SDS011;7635;56.696;13.002;2022-12-18T05:35:57;4.83;;;3.20;;
15071;SDS011;7635;56.696;13.002;2022-12-18T05:38:28;6.20;;;2.17;;
15071;SDS011;7635;56.696;13.002;2022-12-18T05:40:58;5.53;;;3.30;;
15071;SDS011;7635;56.696;13.002;2022-12-18T05:43:25;5.30;;;3.83;;
15071;SDS011;7635;56.696;13.002;2022-12-18T05:45:53;4.03;;;3.27;;
15071;SDS011;7635;56.696;13.002;2022-12-18T05:48:20;2.37;;;2.03;;
15071;SDS011;7635;56.696;13.002;2022-12-18T05:50:48;3.47;;;2.70;;
15071;SDS011;7635;56.696;13.002;2022-12-18T05:53:16;5.60;;;1.73;;
15071;SDS011;7635;56.696;13.002;2022-12-18T05:55:45;3.33;;;3.03;;
15071;SDS011;7635;56.696;13.002;2022-12-18T05:58:14;4.07;;;3.27;;
15071;SDS011;7635;56.696;13.002;2022-12-18T06:00:41;4.03;;;3.07;;
15071;SDS011;7635;56.696;13.002;2022-12-18T06:03:11;6.43;;;2.57;;
15071;SDS011;7635;56.696;13.002;2022-12-18T06:05:39;6.13;;;3.40;;
15071;SDS011;7635;56.696;13.002;2022-12-18T06:08:08;6.20;;;3.30;;
15071;SDS011;7635;56.696;13.002;2022-12-18T06:10:35;6.07;;;3.70;;
15071;SDS011;7635;56.696;13.002;2022-12-18T06:13:03;2.80;;;2.57;;
15071;SDS011;7635;56.696;13.002;2022-12-18T06:15:31;3.67;;;2.80;;
15071;SDS011;7635;56.696;13.002;2022-12-18T06:17:59;6.93;;;2.37;;
15071;SDS011;7635;56.696;13.002;2022-12-18T06:20:26;4.00;;;3.13;;
15071;SDS011;7635;56.696;13.002;2022-12-18T06:22:53;7.37;;;4.10;;
15071;SDS011;7635;56.696;13.002;2022-12-18T06:25:19;3.53;;;2.60;;
15071;SDS011;7635;56.696;13.002;2022-12-18T06:27:46;3.07;;;2.33;;
15071;SDS011;7635;56.696;13.002;2022-12-18T06:30:13;4.13;;;2.70;;
15071;SDS011;7635;56.696;13.002;2022-12-18T06:32:42;0.77;;;0.77;;
15071;SDS011;7635;56.696;13.002;2022-12-18T06:35:08;7.00;;;3.73;;
15071;SDS011;7635;56.696;13.002;2022-12-18T06:37:35;3.93;;;3.13;;
15071;SDS011;7635;56.696;13.002;2022-12-18T06:40:02;1.70;;;1.47;;
15071;SDS011;7635;56.696;13.002;2022-12-18T06:42:30;3.87;;;2.87;;
15071;SDS011;7635;56.696;13.002;2022-12-18T06:44:57;2.90;;;2.27;;
15071;SDS011;7635;56.696;13.002;2022-12-18T06:47:23;5.60;;;3.80;;
15071;SDS011;7635;56.696;13.002;2022-12-18T06:49:51;2.20;;;1.27;;
15071;SDS011;7635;56.696;13.002;2022-12-18T06:52:18;3.70;;;2.97;;
15071;SDS011;7635;56.696;13.002;2022-12-18T06:54:45;2.00;;;1.80;;
15071;SDS011;7635;56.696;13.002;2022-12-18T06:57:11;3.13;;;2.47;;
15071;SDS011;7635;56.696;13.002;2022-12-18T06:59:38;2.43;;;2.23;;
15071;SDS011;7635;56.696;13.002;2022-12-18T07:02:05;4.33;;;3.07;;
15071;SDS011;7635;56.696;13.002;2022-12-18T07:04:32;3.63;;;2.70;;
15071;SDS011;7635;56.696;13.002;2022-12-18T07:07:00;3.43;;;2.63;;
15071;SDS011;7635;56.696;13.002;2022-12-18T07:09:26;1.37;;;1.20;;
15071;SDS011;7635;56.696;13.002;2022-12-18T07:11:53;5.03;;;3.17;;
15071;SDS011;7635;56.696;13.002;2022-12-18T07:14:20;6.23;;;3.53;;
15071;SDS011;7635;56.696;13.002;2022-12-18T07:16:47;3.97;;;2.40;;
15071;SDS011;7635;56.696;13.002;2022-12-18T07:19:13;2.70;;;2.20;;
15071;SDS011;7635;56.696;13.002;2022-12-18T07:21:40;1.97;;;1.53;;
15071;SDS011;7635;56.696;13.002;2022-12-18T07:24:08;4.07;;;2.27;;
15071;SDS011;7635;56.696;13.002;2022-12-18T07:26:35;6.27;;;3.00;;
15071;SDS011;7635;56.696;13.002;2022-12-18T07:29:01;4.17;;;2.83;;
15071;SDS011;7635;56.696;13.002;2022-12-18T07:31:28;6.37;;;3.27;;
15071;SDS011;7635;56.696;13.002;2022-12-18T07:33:55;1.87;;;1.77;;
15071;SDS011;7635;56.696;13.002;2022-12-18T07:36:21;3.43;;;2.97;;
15071;SDS011;7635;56.696;13.002;2022-12-18T07:38:48;4.20;;;3.23;;
15071;SDS011;7635;56.696;13.002;2022-12-18T07:41:18;5.30;;;4.10;;
15071;SDS011;7635;56.696;13.002;2022-12-18T07:43:45;6.70;;;3.50;;
15071;SDS011;7635;56.696;13.002;2022-12-18T07:46:12;4.47;;;3.63;;
15071;SDS011;7635;56.696;13.002;2022-12-18T07:48:42;6.27;;;4.10;;
15071;SDS011;7635;56.696;13.002;2022-12-18T07:51:09;2.53;;;2.20;;
15071;SDS011;7635;56.696;13.002;2022-12-18T07:53:38;2.83;;;2.47;;
15071;SDS011;7635;56.696;13.002;2022-12-18T07:56:06;3.07;;;2.73;;
15071;SDS011;7635;56.696;13.002;2022-12-18T07:58:35;2.20;;;1.97;;
15071;SDS011;7635;56.696;13.002;2022-12-18T08:01:03;4.97;;;3.07;;
15071;SDS011;7635;56.696;13.002;2022-12-18T08:03:31;2.60;;;2.40;;
15071;SDS011;7635;56.696;13.002;2022-12-18T08:05:59;5.80;;;3.13;;
15071;SDS011;7635;56.696;13.002;2022-12-18T08:08:26;5.47;;;3.70;;
15071;SDS011;7635;56.696;13.002;2022-12-18T08:10:52;5.77;;;2.67;;
15071;SDS011;7635;56.696;13.002;2022-12-18T08:13:19;4.30;;;2.97;;
15071;SDS011;7635;56.696;13.002;2022-12-18T08:15:48;4.03;;;2.27;;
15071;SDS011;7635;56.696;13.002;2022-12-18T08:18:21;5.33;;;3.37;;
15071;SDS011;7635;56.696;13.002;2022-12-18T08:20:48;3.93;;;3.00;;
15071;SDS011;7635;56.696;13.002;2022-12-18T08:23:15;4.60;;;2.27;;
15071;SDS011;7635;56.696;13.002;2022-12-18T08:25:42;4.40;;;3.03;;
15071;SDS011;7635;56.696;13.002;2022-12-18T08:28:09;2.53;;;2.10;;
15071;SDS011;7635;56.696;13.002;2022-12-18T08:30:35;6.93;;;2.97;;
15071;SDS011;7635;56.696;13.002;2022-12-18T08:33:03;3.20;;;2.07;;
15071;SDS011;7635;56.696;13.002;2022-12-18T08:35:34;6.10;;;3.47;;
15071;SDS011;7635;56.696;13.002;2022-12-18T08:38:01;3.30;;;3.00;;
15071;SDS011;7635;56.696;13.002;2022-12-18T08:40:27;3.83;;;2.40;;
15071;SDS011;7635;56.696;13.002;2022-12-18T08:42:54;2.07;;;1.63;;
15071;SDS011;7635;56.696;13.002;2022-12-18T08:45:38;1.90;;;1.43;;
15071;SDS011;7635;56.696;13.002;2022-12-18T08:48:06;4.23;;;2.20;;
15071;SDS011;7635;56.696;13.002;2022-12-18T08:50:33;3.27;;;2.07;;
15071;SDS011;7635;56.696;13.002;2022-12-18T08:53:00;7.70;;;3.93;;
15071;SDS011;7635;56.696;13.002;2022-12-18T08:55:27;1.47;;;1.37;;
15071;SDS011;7635;56.696;13.002;2022-12-18T08:57:53;5.63;;;3.83;;
15071;SDS011;7635;56.696;13.002;2022-12-18T09:00:20;2.17;;;1.97;;
15071;SDS011;7635;56.696;13.002;2022-12-18T09:02:47;3.17;;;2.43;;
15071;SDS011;7635;56.696;13.002;2022-12-18T09:05:15;3.17;;;2.27;;
15071;SDS011;7635;56.696;13.002;2022-12-18T09:07:42;5.83;;;3.77;;
15071;SDS011;7635;56.696;13.002;2022-12-18T09:10:08;4.67;;;3.43;;
15071;SDS011;7635;56.696;13.002;2022-12-18T09:12:35;8.27;;;3.37;;
15071;SDS011;7635;56.696;13.002;2022-12-18T09:15:02;5.20;;;3.03;;
15071;SDS011;7635;56.696;13.002;2022-12-18T09:17:29;4.83;;;3.00;;
15071;SDS011;7635;56.696;13.002;2022-12-18T09:19:56;4.23;;;3.20;;
15071;SDS011;7635;56.696;13.002;2022-12-18T09:22:24;7.20;;;3.73;;
15071;SDS011;7635;56.696;13.002;2022-12-18T09:24:50;0.53;;;0.53;;
15071;SDS011;7635;56.696;13.002;2022-12-18T09:27:17;8.47;;;3.77;;
15071;SDS011;7635;56.696;13.002;2022-12-18T09:29:44;1.90;;;1.70;;
15071;SDS011;7635;56.696;13.002;2022-12-18T09:32:10;7.07;;;4.37;;
15071;SDS011;7635;56.696;13.002;2022-12-18T09:34:37;6.10;;;3.60;;
15071;SDS011;7635;56.696;13.002;2022-12-18T09:37:04;4.37;;;3.03;;
15071;SDS011;7635;56.696;13.002;2022-12-18T09:39:32;8.23;;;3.30;;
15071;SDS011;7635;56.696;13.002;2022-12-18T09:41:59;4.67;;;3.13;;
15071;SDS011;7635;56.696;13.002;2022-12-18T09:44:26;6.50;;;3.93;;
15071;SDS011;7635;56.696;13.002;2022-12-18T09:47:06;6.80;;;3.30;;
15071;SDS011;7635;56.696;13.002;2022-12-18T09:49:38;2.67;;;2.40;;
15071;SDS011;7635;56.696;13.002;2022-12-18T09:52:12;5.30;;;3.30;;
15071;SDS011;7635;56.696;13.002;2022-12-18T09:54:45;9.60;;;3.97;;
15071;SDS011;7635;56.696;13.002;2022-12-18T09:57:17;4.77;;;2.93;;
15071;SDS011;7635;56.696;13.002;2022-12-18T09:59:46;1.23;;;1.13;;
15071;SDS011;7635;56.696;13.002;2022-12-18T10:02:18;3.80;;;2.77;;
15071;SDS011;7635;56.696;13.002;2022-12-18T10:04:49;6.93;;;2.20;;
15071;SDS011;7635;56.696;13.002;2022-12-18T10:07:24;4.83;;;3.27;;
15071;SDS011;7635;56.696;13.002;2022-12-18T10:10:02;3.13;;;1.67;;
15071;SDS011;7635;56.696;13.002;2022-12-18T10:12:32;4.50;;;3.53;;
15071;SDS011;7635;56.696;13.002;2022-12-18T10:15:06;3.47;;;2.43;;
15071;SDS011;7635;56.696;13.002;2022-12-18T10:17:40;5.80;;;3.33;;
15071;SDS011;7635;56.696;13.002;2022-12-18T10:20:13;1.17;;;1.07;;
15071;SDS011;7635;56.696;13.002;2022-12-18T10:22:48;6.00;;;3.93;;
15071;SDS011;7635;56.696;13.002;2022-12-18T10:25:23;4.17;;;3.23;;
15071;SDS011;7635;56.696;13.002;2022-12-18T10:27:53;5.80;;;3.27;;
15071;SDS011;7635;56.696;13.002;2022-12-18T10:30:23;2.20;;;1.60;;
15071;SDS011;7635;56.696;13.002;2022-12-18T10:32:52;4.93;;;3.07;;
15071;SDS011;7635;56.696;13.002;2022-12-18T10:35:19;3.50;;;3.17;;
15071;SDS011;7635;56.696;13.002;2022-12-18T10:38:05;2.73;;;1.03;;
15071;SDS011;7635;56.696;13.002;2022-12-18T10:40:50;6.53;;;3.50;;
15071;SDS011;7635;56.696;13.002;2022-12-18T10:43:21;5.53;;;3.47;;
15071;SDS011;7635;56.696;13.002;2022-12-18T10:46:00;6.27;;;4.17;;
15071;SDS011;7635;56.696;13.002;2022-12-18T10:48:29;6.03;;;3.43;;
15071;SDS011;7635;56.696;13.002;2022-12-18T10:50:57;7.03;;;3.30;;
15071;SDS011;7635;56.696;13.002;2022-12-18T10:53:24;5.30;;;3.80;;
15071;SDS011;7635;56.696;13.002;2022-12-18T10:55:54;8.37;;;3.60;;
15071;SDS011;7635;56.696;13.002;2022-12-18T10:58:24;6.00;;;4.07;;
15071;SDS011;7635;56.696;13.002;2022-12-18T11:01:02;4.37;;;2.83;;
15071;SDS011;7635;56.696;13.002;2022-12-18T11:03:32;5.07;;;3.30;;
15071;SDS011;7635;56.696;13.002;2022-12-18T11:06:01;7.60;;;2.83;;
15071;SDS011;7635;56.696;13.002;2022-12-18T11:08:30;0.73;;;0.73;;
15071;SDS011;7635;56.696;13.002;2022-12-18T11:10:58;7.17;;;3.80;;
15071;SDS011;7635;56.696;13.002;2022-12-18T11:13:25;9.47;;;3.50;;
15071;SDS011;7635;56.696;13.002;2022-12-18T11:15:53;5.70;;;3.07;;
15071;SDS011;7635;56.696;13.002;2022-12-18T11:18:22;5.03;;;3.17;;
15071;SDS011;7635;56.696;13.002;2022-12-18T11:20:53;5.43;;;3.10;;
15071;SDS011;7635;56.696;13.002;2022-12-18T11:23:23;5.90;;;3.23;;
15071;SDS011;7635;56.696;13.002;2022-12-18T11:25:52;5.50;;;3.10;;
15071;SDS011;7635;56.696;13.002;2022-12-18T11:28:27;5.53;;;3.33;;
15071;SDS011;7635;56.696;13.002;2022-12-18T11:31:17;3.40;;;1.93;;
15071;SDS011;7635;56.696;13.002;2022-12-18T11:34:02;1.63;;;1.53;;
15071;SDS011;7635;56.696;13.002;2022-12-18T11:36:36;5.20;;;3.13;;
15071;SDS011;7635;56.696;13.002;2022-12-18T11:39:09;5.60;;;3.17;;
15071;SDS011;7635;56.696;13.002;2022-12-18T11:41:43;5.40;;;3.27;;
15071;SDS011;7635;56.696;13.002;2022-12-18T11:44:35;4.30;;;3.20;;
15071;SDS011;7635;56.696;13.002;2022-12-18T11:47:08;8.93;;;3.87;;
15071;SDS011;7635;56.696;13.002;2022-12-18T11:49:41;2.27;;;1.97;;
15071;SDS011;7635;56.696;13.002;2022-12-18T11:52:09;6.57;;;4.10;;
15071;SDS011;7635;56.696;13.002;2022-12-18T11:54:43;5.23;;;3.40;;
15071;SDS011;7635;56.696;13.002;2022-12-18T11:57:11;6.53;;;3.47;;
15071;SDS011;7635;56.696;13.002;2022-12-18T11:59:46;2.97;;;2.43;;
15071;SDS011;7635;56.696;13.002;2022-12-18T12:02:29;3.53;;;2.47;;
15071;SDS011;7635;56.696;13.002;2022-12-18T12:05:15;7.73;;;3.10;;
15071;SDS011;7635;56.696;13.002;2022-12-18T12:07:55;6.17;;;3.53;;
15071;SDS011;7635;56.696;13.002;2022-12-18T12:10:33;6.03;;;3.20;;
15071;SDS011;7635;56.696;13.002;2022-12-18T12:13:11;5.83;;;2.87;;
15071;SDS011;7635;56.696;13.002;2022-12-18T12:15:54;5.20;;;4.00;;
15071;SDS011;7635;56.696;13.002;2022-12-18T12:18:32;5.93;;;3.27;;
15071;SDS011;7635;56.696;13.002;2022-12-18T12:21:04;1.33;;;1.10;;
15071;SDS011;7635;56.696;13.002;2022-12-18T12:23:40;2.57;;;1.87;;
15071;SDS011;7635;56.696;13.002;2022-12-18T12:26:14;3.37;;;3.00;;
15071;SDS011;7635;56.696;13.002;2022-12-18T12:28:58;3.13;;;2.50;;
15071;SDS011;7635;56.696;13.002;2022-12-18T12:34:30;7.83;;;3.67;;
15071;SDS011;7635;56.696;13.002;2022-12-18T12:37:09;6.10;;;3.60;;
15071;SDS011;7635;56.696;13.002;2022-12-18T12:39:44;5.63;;;3.47;;
15071;SDS011;7635;56.696;13.002;2022-12-18T12:42:15;4.93;;;3.07;;
15071;SDS011;7635;56.696;13.002;2022-12-18T12:45:05;4.17;;;2.87;;
15071;SDS011;7635;56.696;13.002;2022-12-18T12:47:41;9.43;;;4.10;;
15071;SDS011;7635;56.696;13.002;2022-12-18T12:50:12;7.60;;;4.10;;
15071;SDS011;7635;56.696;13.002;2022-12-18T12:52:42;5.33;;;3.53;;
15071;SDS011;7635;56.696;13.002;2022-12-18T12:55:13;7.07;;;3.53;;
15071;SDS011;7635;56.696;13.002;2022-12-18T12:57:45;4.80;;;2.97;;
15071;SDS011;7635;56.696;13.002;2022-12-18T13:00:14;5.93;;;3.57;;
15071;SDS011;7635;56.696;13.002;2022-12-18T13:02:46;3.47;;;1.57;;
15071;SDS011;7635;56.696;13.002;2022-12-18T13:05:18;2.90;;;2.57;;
15071;SDS011;7635;56.696;13.002;2022-12-18T13:07:50;5.50;;;3.20;;
15071;SDS011;7635;56.696;13.002;2022-12-18T13:10:28;7.77;;;3.43;;
15071;SDS011;7635;56.696;13.002;2022-12-18T13:12:59;3.40;;;2.77;;
15071;SDS011;7635;56.696;13.002;2022-12-18T13:15:28;7.57;;;3.63;;
15071;SDS011;7635;56.696;13.002;2022-12-18T13:18:10;5.33;;;3.60;;
15071;SDS011;7635;56.696;13.002;2022-12-18T13:20:43;7.30;;;4.03;;
15071;SDS011;7635;56.696;13.002;2022-12-18T13:23:31;6.97;;;3.43;;
15071;SDS011;7635;56.696;13.002;2022-12-18T13:25:59;6.47;;;3.63;;
15071;SDS011;7635;56.696;13.002;2022-12-18T13:28:57;4.13;;;3.17;;
15071;SDS011;7635;56.696;13.002;2022-12-18T13:34:36;3.97;;;3.10;;
15071;SDS011;7635;56.696;13.002;2022-12-18T13:43:15;3.90;;;3.03;;
15071;SDS011;7635;56.696;13.002;2022-12-18T13:45:49;5.60;;;3.17;;
15071;SDS011;7635;56.696;13.002;2022-12-18T13:48:25;6.40;;;3.13;;
15071;SDS011;7635;56.696;13.002;2022-12-18T13:50:58;3.03;;;2.70;;
15071;SDS011;7635;56.696;13.002;2022-12-18T13:53:29;7.90;;;3.03;;
15071;SDS011;7635;56.696;13.002;2022-12-18T13:55:59;3.37;;;2.80;;
15071;SDS011;7635;56.696;13.002;2022-12-18T13:58:27;4.90;;;3.23;;
15071;SDS011;7635;56.696;13.002;2022-12-18T14:00:54;3.83;;;2.97;;
15071;SDS011;7635;56.696;13.002;2022-12-18T14:03:22;4.20;;;3.07;;
15071;SDS011;7635;56.696;13.002;2022-12-18T14:05:55;2.20;;;1.93;;
15071;SDS011;7635;56.696;13.002;2022-12-18T14:08:25;4.40;;;2.40;;
15071;SDS011;7635;56.696;13.002;2022-12-18T14:10:58;1.20;;;0.93;;
15071;SDS011;7635;56.696;13.002;2022-12-18T14:13:28;0.30;;;0.30;;
15071;SDS011;7635;56.696;13.002;2022-12-18T14:15:57;5.13;;;3.27;;
15071;SDS011;7635;56.696;13.002;2022-12-18T14:18:26;4.20;;;2.93;;
15071;SDS011;7635;56.696;13.002;2022-12-18T14:21:00;3.93;;;2.80;;
15071;SDS011;7635;56.696;13.002;2022-12-18T14:23:29;5.00;;;2.87;;
15071;SDS011;7635;56.696;13.002;2022-12-18T14:25:58;9.83;;;3.73;;
15071;SDS011;7635;56.696;13.002;2022-12-18T14:28:26;3.30;;;2.73;;
15071;SDS011;7635;56.696;13.002;2022-12-18T14:30:53;5.77;;;3.53;;
15071;SDS011;7635;56.696;13.002;2022-12-18T14:33:20;6.80;;;3.23;;
15071;SDS011;7635;56.696;13.002;2022-12-18T14:35:53;5.73;;;3.40;;
15071;SDS011;7635;56.696;13.002;2022-12-18T14:38:28;5.43;;;2.80;;
15071;SDS011;7635;56.696;13.002;2022-12-18T14:40:56;3.73;;;3.10;;
15071;SDS011;7635;56.696;13.002;2022-12-18T14:43:23;5.87;;;3.70;;
15071;SDS011;7635;56.696;13.002;2022-12-18T14:45:50;4.97;;;3.07;;
15071;SDS011;7635;56.696;13.002;2022-12-18T14:48:18;2.80;;;2.33;;
15071;SDS011;7635;56.696;13.002;2022-12-18T14:50:54;4.33;;;3.10;;
15071;SDS011;7635;56.696;13.002;2022-12-18T14:53:23;6.37;;;3.70;;
15071;SDS011;7635;56.696;13.002;2022-12-18T14:55:59;5.40;;;3.50;;
15071;SDS011;7635;56.696;13.002;2022-12-18T14:58:26;7.73;;;4.13;;
15071;SDS011;7635;56.696;13.002;2022-12-18T15:00:53;5.97;;;3.67;;
15071;SDS011;7635;56.696;13.002;2022-12-18T15:03:20;4.33;;;3.13;;
15071;SDS011;7635;56.696;13.002;2022-12-18T15:05:47;6.63;;;3.63;;
15071;SDS011;7635;56.696;13.002;2022-12-18T15:08:26;5.43;;;3.57;;
15071;SDS011;7635;56.696;13.002;2022-12-18T15:10:56;7.07;;;3.90;;
15071;SDS011;7635;56.696;13.002;2022-12-18T15:13:23;4.23;;;3.33;;
15071;SDS011;7635;56.696;13.002;2022-12-18T15:15:51;8.17;;;4.17;;